createdAt,value
2022-10-04T00:01:58.497Z,11.45
2022-10-04T00:04:25.533Z,13.80
2022-10-04T00:06:52.235Z,13.60
2022-10-04T00:09:18.894Z,13.02
2022-10-04T00:11:45.614Z,13.10
2022-10-04T00:14:12.345Z,11.63
2022-10-04T00:16:39.174Z,13.57
2022-10-04T00:19:05.871Z,12.50
2022-10-04T00:21:32.528Z,13.50
2022-10-04T00:23:59.440Z,14.32
2022-10-04T00:26:26.092Z,13.20
2022-10-04T00:28:52.830Z,16.60
2022-10-04T00:31:19.675Z,12.23
2022-10-04T00:33:46.399Z,10.57
2022-10-04T00:36:13.137Z,10.65
2022-10-04T00:38:39.876Z,15.82
2022-10-04T00:41:06.565Z,11.77
2022-10-04T00:43:33.783Z,10.68
2022-10-04T00:46:00.547Z,8.45
2022-10-04T00:48:31.269Z,11.32
2022-10-04T00:50:58.909Z,11.27
2022-10-04T00:53:25.548Z,11.70
2022-10-04T00:55:52.259Z,11.82
2022-10-04T00:58:18.953Z,8.10
2022-10-04T01:00:45.630Z,9.48
2022-10-04T01:03:12.500Z,8.85
2022-10-04T01:05:39.173Z,9.02
2022-10-04T01:08:05.820Z,11.65
2022-10-04T01:10:32.527Z,12.73
2022-10-04T01:13:00.264Z,9.95
2022-10-04T01:15:26.951Z,9.10
2022-10-04T01:17:53.590Z,6.80
2022-10-04T01:20:20.491Z,9.10
2022-10-04T01:22:47.140Z,8.13
2022-10-04T01:25:13.851Z,6.18
2022-10-04T01:27:40.673Z,8.82
2022-10-04T01:30:09.200Z,8.35
2022-10-04T01:32:35.843Z,8.48
2022-10-04T01:35:02.566Z,9.00
2022-10-04T01:37:29.226Z,10.82
2022-10-04T01:39:55.948Z,8.25
2022-10-04T01:42:23.416Z,11.65
2022-10-04T01:44:50.074Z,6.80
2022-10-04T01:47:16.777Z,9.40
2022-10-04T01:49:43.924Z,6.68
2022-10-04T01:52:10.582Z,10.75
2022-10-04T01:54:37.317Z,10.35
2022-10-04T01:57:04.012Z,6.43
2022-10-04T01:59:30.700Z,6.63
2022-10-04T02:01:57.382Z,8.43
2022-10-04T02:04:24.277Z,11.25
2022-10-04T02:06:53.091Z,12.25
2022-10-04T02:09:19.744Z,10.57
2022-10-04T02:11:46.385Z,6.10
2022-10-04T02:14:15.779Z,8.60
2022-10-04T02:16:42.440Z,9.38
2022-10-04T02:19:09.092Z,6.57
2022-10-04T02:21:35.765Z,8.50
2022-10-04T02:24:02.485Z,8.27
2022-10-04T02:26:29.153Z,9.15
2022-10-04T02:28:55.807Z,10.07
2022-10-04T02:31:41.330Z,6.85
2022-10-04T02:34:08.324Z,7.90
2022-10-04T02:36:35.040Z,7.85
2022-10-04T02:39:01.800Z,7.85
2022-10-04T02:41:29.688Z,7.80
2022-10-04T02:43:56.471Z,8.30
2022-10-04T02:46:23.201Z,8.88
2022-10-04T02:48:49.907Z,9.15
2022-10-04T02:51:16.555Z,9.18
2022-10-04T02:53:44.257Z,8.73
2022-10-04T02:56:12.216Z,8.88
2022-10-04T02:58:38.894Z,8.20
2022-10-04T03:01:05.634Z,7.90
2022-10-04T03:03:32.358Z,8.52
2022-10-04T03:05:59.044Z,5.90
2022-10-04T03:08:25.700Z,6.50
2022-10-04T03:10:52.416Z,8.18
2022-10-04T03:13:19.101Z,6.00
2022-10-04T03:15:45.987Z,8.45
2022-10-04T03:18:12.728Z,10.27
2022-10-04T03:20:39.444Z,9.05
2022-10-04T03:23:06.635Z,7.53
2022-10-04T03:25:33.309Z,8.30
2022-10-04T03:28:00.158Z,13.98
2022-10-04T03:30:27.223Z,9.48
2022-10-04T03:32:53.958Z,8.68
2022-10-04T03:35:20.660Z,9.57
2022-10-04T03:37:47.385Z,8.05
2022-10-04T03:40:14.056Z,8.32
2022-10-04T03:42:40.771Z,9.13
2022-10-04T03:45:07.505Z,8.57
2022-10-04T03:47:34.295Z,11.55
2022-10-04T03:50:00.959Z,8.82
2022-10-04T03:52:27.638Z,8.10
2022-10-04T03:54:54.746Z,7.53
2022-10-04T03:57:21.418Z,5.95
2022-10-04T03:59:48.074Z,8.98
2022-10-04T04:02:14.877Z,9.68
2022-10-04T04:04:42.115Z,9.43
2022-10-04T04:07:08.768Z,11.38
2022-10-04T04:09:35.463Z,7.05
2022-10-04T04:12:04.346Z,10.60
2022-10-04T04:14:31.004Z,7.07
2022-10-04T04:16:57.900Z,8.88
2022-10-04T04:19:24.898Z,9.77
2022-10-04T04:21:51.566Z,6.65
2022-10-04T04:24:18.251Z,7.47
2022-10-04T04:26:45.003Z,5.55
2022-10-04T04:29:11.705Z,6.28
2022-10-04T04:31:38.456Z,8.18
2022-10-04T04:34:06.444Z,6.13
2022-10-04T04:36:33.136Z,9.57
2022-10-04T04:39:18.624Z,7.53
2022-10-04T04:41:49.673Z,8.35
2022-10-04T04:44:17.334Z,11.18
2022-10-04T04:46:44.819Z,6.25
2022-10-04T04:49:11.547Z,6.45
2022-10-04T04:51:38.700Z,6.55
2022-10-04T04:54:05.478Z,7.35
2022-10-04T04:56:32.135Z,8.80
2022-10-04T04:58:59.684Z,7.20
2022-10-04T05:01:26.501Z,6.53
2022-10-04T05:03:53.650Z,10.70
2022-10-04T05:06:20.387Z,9.02
2022-10-04T05:08:47.067Z,7.65
2022-10-04T05:11:16.101Z,8.70
2022-10-04T05:13:42.796Z,10.90
2022-10-04T05:16:09.485Z,8.80
2022-10-04T05:18:36.235Z,7.65
2022-10-04T05:21:02.951Z,6.70
2022-10-04T05:23:29.611Z,10.30
2022-10-04T05:25:56.401Z,9.05
2022-10-04T05:28:23.095Z,8.60
2022-10-04T05:30:50.388Z,8.65
2022-10-04T05:33:17.061Z,12.93
2022-10-04T05:35:43.723Z,5.82
2022-10-04T05:38:10.671Z,9.68
2022-10-04T05:40:37.337Z,7.57
2022-10-04T05:43:04.739Z,5.65
2022-10-04T05:45:31.515Z,7.05
2022-10-04T05:47:58.646Z,7.03
2022-10-04T05:50:25.323Z,9.55
2022-10-04T05:52:52.039Z,5.90
2022-10-04T05:55:19.199Z,6.53
2022-10-04T05:57:45.890Z,6.00
2022-10-04T06:00:12.832Z,6.53
2022-10-04T06:02:42.225Z,4.65
2022-10-04T06:05:09.067Z,6.82
2022-10-04T06:07:35.774Z,6.00
2022-10-04T06:10:02.477Z,4.75
2022-10-04T06:12:31.680Z,6.65
2022-10-04T06:14:58.613Z,3.20
2022-10-04T06:17:26.049Z,5.22
2022-10-04T06:19:53.192Z,8.43
2022-10-04T06:22:19.877Z,5.75
2022-10-04T06:24:46.552Z,6.30
2022-10-04T06:27:13.727Z,4.75
2022-10-04T06:29:40.438Z,4.28
2022-10-04T06:32:08.989Z,4.25
2022-10-04T06:34:35.918Z,5.95
2022-10-04T06:37:02.607Z,2.97
2022-10-04T06:39:29.282Z,8.10
2022-10-04T06:41:56.115Z,4.80
2022-10-04T06:44:22.873Z,6.88
2022-10-04T06:46:49.543Z,5.82
2022-10-04T06:49:17.392Z,9.80
2022-10-04T06:51:44.572Z,5.65
2022-10-04T06:54:11.439Z,6.97
2022-10-04T06:56:38.137Z,5.40
2022-10-04T06:59:04.846Z,4.15
2022-10-04T07:01:31.672Z,6.45
2022-10-04T07:03:58.451Z,3.55
2022-10-04T07:06:25.108Z,7.20
2022-10-04T07:08:51.829Z,5.22
2022-10-04T07:11:18.539Z,3.83
2022-10-04T07:13:45.243Z,5.90
2022-10-04T07:16:13.511Z,5.85
2022-10-04T07:18:48.908Z,6.00
2022-10-04T07:21:15.740Z,6.55
2022-10-04T07:23:42.445Z,3.10
2022-10-04T07:26:09.077Z,6.75
2022-10-04T07:28:54.274Z,7.40
2022-10-04T07:31:21.130Z,4.63
2022-10-04T07:33:48.270Z,5.30
2022-10-04T07:36:17.655Z,4.07
2022-10-04T07:38:48.177Z,7.03
2022-10-04T07:41:14.895Z,5.53
2022-10-04T07:43:41.804Z,6.88
2022-10-04T07:46:08.531Z,6.32
2022-10-04T07:48:35.201Z,2.90
2022-10-04T07:51:01.886Z,4.80
2022-10-04T07:53:28.587Z,4.43
2022-10-04T07:55:55.298Z,5.32
2022-10-04T07:58:22.018Z,4.65
2022-10-04T08:00:49.583Z,3.30
2022-10-04T08:03:16.322Z,5.68
2022-10-04T08:05:43.346Z,3.05
2022-10-04T08:08:09.980Z,4.95
2022-10-04T08:10:36.685Z,3.25
2022-10-04T08:13:03.367Z,4.13
2022-10-04T08:15:30.091Z,5.28
2022-10-04T08:17:56.898Z,4.38
2022-10-04T08:20:24.903Z,5.07
2022-10-04T08:22:51.642Z,5.20
2022-10-04T08:25:18.359Z,6.13
2022-10-04T08:28:05.143Z,5.97
2022-10-04T08:30:31.836Z,6.38
2022-10-04T08:33:01.744Z,5.90
2022-10-04T08:35:29.289Z,5.25
2022-10-04T08:37:55.941Z,4.70
2022-10-04T08:40:24.060Z,3.55
2022-10-04T08:42:50.864Z,5.97
2022-10-04T08:45:17.505Z,4.93
2022-10-04T08:47:44.341Z,5.68
2022-10-04T08:50:11.018Z,3.65
2022-10-04T08:52:37.661Z,4.60
2022-10-04T08:55:05.533Z,3.58
2022-10-04T08:57:33.153Z,6.65
2022-10-04T09:00:00.129Z,3.80
2022-10-04T09:02:26.885Z,2.45
2022-10-04T09:04:53.600Z,3.97
2022-10-04T09:07:20.265Z,4.28
2022-10-04T09:09:46.992Z,4.68
2022-10-04T09:12:13.765Z,3.88
2022-10-04T09:14:40.541Z,4.75
2022-10-04T09:17:07.855Z,3.28
2022-10-04T09:19:35.424Z,3.17
2022-10-04T09:22:02.158Z,2.83
2022-10-04T09:24:28.867Z,7.60
2022-10-04T09:26:55.535Z,4.85
2022-10-04T09:29:22.228Z,3.22
2022-10-04T09:31:48.954Z,4.07
2022-10-04T09:34:17.240Z,1.98
2022-10-04T09:36:44.019Z,2.97
2022-10-04T09:39:29.471Z,3.47
2022-10-04T09:41:56.899Z,5.93
2022-10-04T09:44:23.609Z,4.53
2022-10-04T09:46:56.153Z,4.38
2022-10-04T09:49:23.208Z,3.55
2022-10-04T09:51:50.354Z,3.25
2022-10-04T09:54:19.968Z,5.70
2022-10-04T09:56:46.938Z,3.95
2022-10-04T09:59:14.732Z,4.60
2022-10-04T10:01:41.566Z,2.65
2022-10-04T10:04:08.352Z,11.10
2022-10-04T10:06:35.048Z,6.75
2022-10-04T10:09:01.766Z,5.65
2022-10-04T10:11:47.237Z,3.40
2022-10-04T10:16:42.099Z,4.70
2022-10-04T10:19:11.432Z,2.95
2022-10-04T10:21:38.138Z,3.05
2022-10-04T10:24:04.811Z,3.58
2022-10-04T10:26:32.124Z,2.45
2022-10-04T10:28:58.868Z,1.25
2022-10-04T10:31:25.571Z,1.92
2022-10-04T10:33:52.259Z,2.25
2022-10-04T10:36:19.977Z,3.65
2022-10-04T10:38:46.664Z,3.50
2022-10-04T10:41:13.301Z,1.83
2022-10-04T10:43:41.525Z,1.60
2022-10-04T10:46:08.259Z,2.65
2022-10-04T10:48:35.251Z,2.00
2022-10-04T10:51:03.425Z,2.75
2022-10-04T10:53:30.216Z,4.45
2022-10-04T10:55:56.894Z,1.45
2022-10-04T10:58:25.504Z,2.03
2022-10-04T11:00:52.281Z,2.88
2022-10-04T11:03:23.237Z,4.40
2022-10-04T11:05:52.163Z,3.08
2022-10-04T11:08:19.903Z,3.13
2022-10-04T11:10:51.771Z,2.25
2022-10-04T11:13:18.936Z,1.45
2022-10-04T11:15:45.819Z,2.15
2022-10-04T11:18:12.520Z,2.20
2022-10-04T11:20:39.280Z,1.60
2022-10-04T11:23:05.947Z,3.95
2022-10-04T11:25:35.104Z,2.65
2022-10-04T11:28:02.723Z,2.38
2022-10-04T11:30:29.819Z,2.75
2022-10-04T11:32:56.794Z,1.38
2022-10-04T11:35:23.548Z,2.10
2022-10-04T11:37:50.214Z,3.53
2022-10-04T11:40:17.944Z,2.83
2022-10-04T11:42:44.660Z,2.28
2022-10-04T11:45:11.348Z,2.35
2022-10-04T11:47:38.015Z,2.42
2022-10-04T11:50:04.773Z,1.77
2022-10-04T11:52:31.576Z,3.22
2022-10-04T11:54:58.377Z,3.17
2022-10-04T11:57:25.105Z,2.95
2022-10-04T11:59:51.785Z,3.58
2022-10-04T12:02:18.466Z,3.10
2022-10-04T12:04:45.288Z,4.82
2022-10-04T12:07:12.154Z,3.58
2022-10-04T12:09:39.057Z,3.92
2022-10-04T12:12:24.279Z,4.47
2022-10-04T12:14:51.099Z,4.97
2022-10-04T12:17:18.658Z,5.82
2022-10-04T12:19:45.376Z,3.35
2022-10-04T12:22:12.062Z,3.80
2022-10-04T12:24:39.162Z,4.82
2022-10-04T12:27:05.833Z,4.22
2022-10-04T12:29:32.509Z,4.53
2022-10-04T12:31:59.233Z,4.93
2022-10-04T12:34:26.013Z,4.25
2022-10-04T12:36:52.676Z,3.95
2022-10-04T12:39:19.346Z,5.80
2022-10-04T12:41:46.075Z,2.67
2022-10-04T12:44:12.730Z,4.85
2022-10-04T12:46:39.456Z,3.50
2022-10-04T12:49:06.132Z,4.13
2022-10-04T12:51:32.934Z,3.08
2022-10-04T12:54:01.263Z,4.85
2022-10-04T12:56:28.237Z,5.60
2022-10-04T12:58:56.031Z,3.03
2022-10-04T13:01:22.819Z,3.00
2022-10-04T13:03:49.530Z,3.17
2022-10-04T13:06:16.345Z,3.33
2022-10-04T13:08:43.575Z,5.80
2022-10-04T13:11:10.548Z,4.38
2022-10-04T13:13:37.274Z,2.75
2022-10-04T13:18:52.193Z,4.70
2022-10-04T13:21:19.048Z,5.38
2022-10-04T13:23:45.740Z,3.55
2022-10-04T13:26:13.873Z,5.82
2022-10-04T13:28:40.592Z,4.80
2022-10-04T13:31:07.342Z,5.00
2022-10-04T13:33:34.069Z,5.03
2022-10-04T13:36:00.769Z,4.85
2022-10-04T13:38:28.005Z,3.88
2022-10-04T13:40:56.262Z,4.22
2022-10-04T13:43:23.009Z,4.40
2022-10-04T13:45:49.782Z,5.13
2022-10-04T13:48:21.627Z,4.63
2022-10-04T13:50:48.777Z,4.88
2022-10-04T13:53:34.039Z,6.10
2022-10-04T13:56:19.364Z,4.47
2022-10-04T13:58:46.176Z,4.43
2022-10-04T14:01:12.917Z,4.07
2022-10-04T14:03:39.742Z,3.05
2022-10-04T14:06:06.491Z,5.03
2022-10-04T14:08:33.251Z,4.50
2022-10-04T14:11:00.219Z,5.78
2022-10-04T14:13:27.104Z,4.88
2022-10-04T14:15:53.827Z,5.28
2022-10-04T14:18:23.548Z,5.68
2022-10-04T14:20:53.783Z,3.83
2022-10-04T14:23:21.168Z,3.63
2022-10-04T14:25:47.845Z,5.05
2022-10-04T14:28:14.679Z,6.22
2022-10-04T14:30:41.522Z,3.85
2022-10-04T14:33:08.297Z,5.70
2022-10-04T14:35:34.967Z,4.53
2022-10-04T14:38:01.867Z,4.13
2022-10-04T14:40:28.656Z,4.45
2022-10-04T14:42:55.324Z,5.05
2022-10-04T14:45:24.525Z,6.03
2022-10-04T14:47:51.240Z,4.97
2022-10-04T14:50:19.043Z,4.38
2022-10-04T14:52:45.778Z,3.40
2022-10-04T14:55:12.507Z,2.80
2022-10-04T14:57:39.194Z,3.78
2022-10-04T15:00:06.881Z,2.38
2022-10-04T15:02:33.549Z,1.63
2022-10-04T15:05:00.246Z,2.75
2022-10-04T15:07:26.936Z,4.25
2022-10-04T15:09:53.714Z,3.78
2022-10-04T15:12:36.425Z,2.55
2022-10-04T15:15:03.384Z,5.15
2022-10-04T15:17:30.067Z,3.25
2022-10-04T15:19:58.137Z,4.07
2022-10-04T15:22:24.935Z,3.47
2022-10-04T15:24:51.630Z,4.57
2022-10-04T15:27:18.298Z,3.05
2022-10-04T15:29:44.993Z,4.00
2022-10-04T15:32:11.636Z,4.25
2022-10-04T15:34:38.879Z,2.90
2022-10-04T15:37:05.550Z,2.85
2022-10-04T15:39:32.249Z,2.92
2022-10-04T15:41:59.345Z,3.85
2022-10-04T15:44:26.060Z,3.97
2022-10-04T15:46:52.743Z,3.88
2022-10-04T15:49:19.428Z,3.33
2022-10-04T15:51:46.400Z,2.10
2022-10-04T15:54:13.523Z,4.88
2022-10-04T15:56:40.201Z,4.15
2022-10-04T15:59:07.343Z,2.90
2022-10-04T16:01:34.185Z,4.38
2022-10-04T16:04:00.902Z,4.32
2022-10-04T16:06:27.653Z,4.60
2022-10-04T16:08:54.785Z,4.30
2022-10-04T16:11:22.589Z,5.50
2022-10-04T16:13:49.242Z,5.68
2022-10-04T16:16:15.991Z,6.45
2022-10-04T16:18:43.378Z,6.72
2022-10-04T16:21:15.948Z,3.47
2022-10-04T16:23:44.175Z,2.97
2022-10-04T16:26:10.852Z,4.10
2022-10-04T16:28:37.750Z,4.65
2022-10-04T16:31:04.509Z,4.40
2022-10-04T16:33:31.376Z,7.10
2022-10-04T16:35:58.252Z,4.53
2022-10-04T16:38:24.968Z,6.80
2022-10-04T16:40:51.644Z,4.50
2022-10-04T16:43:18.429Z,5.00
2022-10-04T16:45:45.189Z,5.35
2022-10-04T16:48:11.960Z,4.63
2022-10-04T16:50:38.615Z,5.03
2022-10-04T16:53:05.359Z,3.55
2022-10-04T16:55:32.120Z,4.85
2022-10-04T16:57:58.789Z,8.20
2022-10-04T17:00:25.525Z,4.85
2022-10-04T17:02:52.174Z,6.45
2022-10-04T17:05:18.876Z,4.50
2022-10-04T17:07:45.588Z,7.90
2022-10-04T17:10:12.686Z,6.82
2022-10-04T17:12:39.385Z,4.72
2022-10-04T17:15:06.955Z,3.53
2022-10-04T17:17:33.641Z,6.28
2022-10-04T17:20:00.498Z,9.15
2022-10-04T17:22:27.518Z,7.07
2022-10-04T17:24:54.201Z,6.30
2022-10-04T17:27:21.434Z,5.85
2022-10-04T17:29:48.587Z,4.35
2022-10-04T17:32:17.573Z,5.18
2022-10-04T17:34:44.395Z,4.45
2022-10-04T17:37:11.090Z,5.88
2022-10-04T17:39:39.696Z,3.35
2022-10-04T17:42:06.358Z,6.95
2022-10-04T17:44:34.049Z,3.55
2022-10-04T17:47:00.721Z,6.97
2022-10-04T17:49:46.252Z,3.40
2022-10-04T17:52:31.728Z,3.42
2022-10-04T17:55:16.783Z,4.13
2022-10-04T17:57:43.482Z,4.63
2022-10-04T18:00:10.286Z,3.45
2022-10-04T18:02:37.099Z,4.30
2022-10-04T18:05:08.380Z,7.57
2022-10-04T18:07:35.322Z,3.47
2022-10-04T18:10:03.561Z,6.43
2022-10-04T18:12:30.316Z,4.25
2022-10-04T18:14:57.095Z,5.13
2022-10-04T18:17:24.540Z,5.65
2022-10-04T18:19:51.224Z,5.07
2022-10-04T18:22:17.902Z,8.43
2022-10-04T18:24:44.589Z,6.35
2022-10-04T18:27:11.237Z,4.07
2022-10-04T18:29:38.064Z,5.95
2022-10-04T18:32:04.733Z,3.92
2022-10-04T18:34:32.156Z,6.05
2022-10-04T18:36:58.892Z,4.70
2022-10-04T18:39:25.609Z,5.53
2022-10-04T18:41:52.413Z,4.50
2022-10-04T18:44:19.083Z,4.97
2022-10-04T18:46:48.451Z,4.35
2022-10-04T18:49:16.002Z,5.72
2022-10-04T18:51:43.824Z,7.13
2022-10-04T18:54:10.659Z,6.68
2022-10-04T18:56:37.352Z,7.20
2022-10-04T18:59:22.767Z,5.07
2022-10-04T19:02:03.284Z,5.68
2022-10-04T19:04:30.120Z,4.65
2022-10-04T19:06:56.760Z,9.18
2022-10-04T19:09:23.445Z,10.02
2022-10-04T19:11:50.126Z,7.53
2022-10-04T19:14:18.741Z,6.30
2022-10-04T19:16:45.842Z,7.70
2022-10-04T19:19:12.741Z,7.32
2022-10-04T19:21:39.404Z,8.25
2022-10-04T19:24:06.193Z,6.82
2022-10-04T19:26:33.122Z,10.07
2022-10-04T19:28:59.895Z,6.10
2022-10-04T19:31:26.755Z,8.57
2022-10-04T19:33:53.614Z,5.75
2022-10-04T19:36:20.447Z,6.07
2022-10-04T19:38:49.620Z,6.40
2022-10-04T19:41:16.280Z,8.70
2022-10-04T19:43:43.045Z,5.80
2022-10-04T19:46:11.334Z,8.32
2022-10-04T19:48:38.608Z,4.03
2022-10-04T19:51:05.385Z,5.25
2022-10-04T19:53:32.075Z,4.30
2022-10-04T19:55:58.769Z,4.15
2022-10-04T19:58:25.774Z,4.30
2022-10-04T20:00:52.467Z,8.10
2022-10-04T20:03:19.226Z,4.90
2022-10-04T20:05:45.856Z,6.03
2022-10-04T20:08:12.586Z,6.22
2022-10-04T20:10:39.284Z,7.13
2022-10-04T20:13:06.475Z,8.07
2022-10-04T20:15:34.763Z,5.07
2022-10-04T20:18:03.062Z,9.23
2022-10-04T20:20:29.696Z,7.95
2022-10-04T20:22:56.690Z,8.93
2022-10-04T20:25:23.470Z,6.82
2022-10-04T20:27:50.120Z,7.70
2022-10-04T20:30:17.199Z,5.95
2022-10-04T20:32:44.195Z,7.30
2022-10-04T20:35:10.957Z,7.65
2022-10-04T20:37:37.902Z,7.07
2022-10-04T20:40:04.936Z,6.70
2022-10-04T20:42:35.038Z,5.55
2022-10-04T20:45:01.899Z,5.90
2022-10-04T20:47:29.183Z,8.55
2022-10-04T20:49:58.021Z,6.13
2022-10-04T20:52:26.448Z,5.85
2022-10-04T20:54:53.587Z,6.15
2022-10-04T20:57:24.080Z,6.00
2022-10-04T20:59:51.835Z,5.80
2022-10-04T21:02:18.722Z,7.82
2022-10-04T21:04:47.452Z,5.47
2022-10-04T21:07:14.419Z,8.27
2022-10-04T21:09:41.396Z,6.05
2022-10-04T21:12:08.332Z,8.27
2022-10-04T21:14:35.152Z,4.05
2022-10-04T21:17:03.129Z,6.25
2022-10-04T21:19:30.660Z,4.50
2022-10-04T21:21:57.441Z,6.78
2022-10-04T21:24:24.362Z,6.28
2022-10-04T21:26:51.174Z,5.13
2022-10-04T21:29:17.985Z,7.35
2022-10-04T21:31:44.858Z,6.22
2022-10-04T21:34:20.241Z,6.75
2022-10-04T21:36:55.770Z,6.60
2022-10-04T21:39:23.078Z,6.68
2022-10-04T21:41:49.766Z,5.70
2022-10-04T21:44:16.515Z,5.60
2022-10-04T21:46:43.363Z,3.75
2022-10-04T21:49:10.246Z,7.78
2022-10-04T21:51:37.511Z,5.45
2022-10-04T21:54:04.193Z,6.38
2022-10-04T21:56:30.969Z,6.82
2022-10-04T21:58:57.656Z,5.80
2022-10-04T22:01:24.463Z,7.25
2022-10-04T22:03:51.247Z,10.35
2022-10-04T22:06:17.884Z,9.52
2022-10-04T22:08:44.672Z,6.25
2022-10-04T22:11:11.340Z,5.57
2022-10-04T22:13:38.038Z,6.70
2022-10-04T22:16:04.838Z,6.10
2022-10-04T22:18:31.531Z,5.00
2022-10-04T22:20:58.282Z,6.22
2022-10-04T22:23:24.979Z,4.90
2022-10-04T22:25:51.616Z,5.05
2022-10-04T22:28:18.468Z,6.25
2022-10-04T22:30:45.223Z,6.00
2022-10-04T22:33:11.947Z,8.02
2022-10-04T22:35:38.780Z,6.47
2022-10-04T22:38:05.411Z,5.07
2022-10-04T22:40:32.109Z,6.90
2022-10-04T22:43:00.915Z,6.75
2022-10-04T22:45:27.800Z,9.82
2022-10-04T22:47:54.691Z,6.30
2022-10-04T22:50:21.399Z,7.18
2022-10-04T22:52:48.046Z,6.07
2022-10-04T22:55:14.738Z,4.55
2022-10-04T22:57:41.402Z,7.13
2022-10-04T23:00:08.084Z,7.90
2022-10-04T23:02:34.792Z,6.47
2022-10-04T23:05:01.645Z,8.43
2022-10-04T23:07:28.377Z,6.60
2022-10-04T23:09:55.103Z,4.70
2022-10-04T23:12:21.728Z,8.32
2022-10-04T23:14:48.403Z,5.68
2022-10-04T23:17:15.065Z,7.45
2022-10-04T23:19:41.778Z,8.30
2022-10-04T23:22:08.507Z,9.65
2022-10-04T23:24:35.153Z,6.35
2022-10-04T23:27:03.852Z,8.10
2022-10-04T23:29:30.506Z,6.57
2022-10-04T23:31:57.351Z,7.15
2022-10-04T23:34:24.176Z,9.20
2022-10-04T23:36:50.816Z,11.23
2022-10-04T23:39:17.517Z,8.88
2022-10-04T23:41:44.228Z,8.00
2022-10-04T23:44:10.923Z,8.48
2022-10-04T23:46:37.710Z,7.65
2022-10-04T23:49:04.388Z,5.93
2022-10-04T23:51:31.072Z,5.95
2022-10-04T23:53:57.724Z,5.35
2022-10-04T23:56:24.828Z,4.40
2022-10-04T23:58:51.490Z,6.97
